sensor_id;sensor_type;location;lat;lon;timestamp;pressure;altitude;pressure_sealevel;temperature;humidity
42003;BME280;27693;50.506;30.832;2023-02-21T00:00:07;97485.13;;;1.75;100.00
42003;BME280;27693;50.506;30.832;2023-02-21T00:01:28;97479.80;;;1.80;100.00
42003;BME280;27693;50.506;30.832;2023-02-21T00:02:50;97473.53;;;1.86;100.00
42003;BME280;27693;50.506;30.832;2023-02-21T00:04:12;97480.20;;;1.90;100.00
42003;BME280;27693;50.506;30.832;2023-02-21T00:05:33;97461.34;;;1.91;100.00
42003;BME280;27693;50.506;30.832;2023-02-21T00:06:55;97467.98;;;1.95;100.00
42003;BME280;27693;50.506;30.832;2023-02-21T00:08:16;97467.00;;;1.98;100.00
42003;BME280;27693;50.506;30.832;2023-02-21T00:09:38;97483.24;;;1.98;100.00
42003;BME280;27693;50.506;30.832;2023-02-21T00:10:59;97455.63;;;2.03;100.00
42003;BME280;27693;50.506;30.832;2023-02-21T00:12:20;97451.11;;;2.08;100.00
42003;BME280;27693;50.506;30.832;2023-02-21T00:13:43;97457.01;;;2.11;100.00
42003;BME280;27693;50.506;30.832;2023-02-21T00:15:05;97445.59;;;2.16;100.00
42003;BME280;27693;50.506;30.832;2023-02-21T00:16:26;97435.28;;;2.18;100.00
42003;BME280;27693;50.506;30.832;2023-02-21T00:17:47;97490.66;;;2.22;100.00
42003;BME280;27693;50.506;30.832;2023-02-21T00:19:08;97427.38;;;2.22;100.00
42003;BME280;27693;50.506;30.832;2023-02-21T00:20:30;97446.02;;;2.26;100.00
42003;BME280;27693;50.506;30.832;2023-02-21T00:21:52;97428.05;;;2.26;100.00
42003;BME280;27693;50.506;30.832;2023-02-21T00:23:15;97427.29;;;2.24;100.00
42003;BME280;27693;50.506;30.832;2023-02-21T00:24:38;97428.78;;;2.28;100.00
42003;BME280;27693;50.506;30.832;2023-02-21T00:25:59;97427.80;;;2.31;100.00
42003;BME280;27693;50.506;30.832;2023-02-21T00:27:21;97420.78;;;2.34;100.00
42003;BME280;27693;50.506;30.832;2023-02-21T00:28:41;97429.25;;;2.36;100.00
42003;BME280;27693;50.506;30.832;2023-02-21T00:30:05;97424.66;;;2.43;100.00
42003;BME280;27693;50.506;30.832;2023-02-21T00:31:27;97416.95;;;2.43;100.00
42003;BME280;27693;50.506;30.832;2023-02-21T00:32:49;97411.57;;;2.48;100.00
42003;BME280;27693;50.506;30.832;2023-02-21T00:34:11;97425.39;;;2.45;100.00
42003;BME280;27693;50.506;30.832;2023-02-21T00:35:33;97426.29;;;2.44;100.00
42003;BME280;27693;50.506;30.832;2023-02-21T00:36:54;97428.04;;;2.44;100.00
42003;BME280;27693;50.506;30.832;2023-02-21T00:38:16;97409.98;;;2.45;100.00
42003;BME280;27693;50.506;30.832;2023-02-21T00:39:37;97420.94;;;2.49;100.00
42003;BME280;27693;50.506;30.832;2023-02-21T00:40:58;97419.13;;;2.51;100.00
42003;BME280;27693;50.506;30.832;2023-02-21T00:42:19;97420.80;;;2.52;100.00
42003;BME280;27693;50.506;30.832;2023-02-21T00:43:41;97395.89;;;2.54;100.00
42003;BME280;27693;50.506;30.832;2023-02-21T00:45:02;97398.28;;;2.57;100.00
42003;BME280;27693;50.506;30.832;2023-02-21T00:46:25;97403.42;;;2.57;100.00
42003;BME280;27693;50.506;30.832;2023-02-21T00:47:47;97403.42;;;2.57;100.00
42003;BME280;27693;50.506;30.832;2023-02-21T00:49:08;97398.28;;;2.57;100.00
42003;BME280;27693;50.506;30.832;2023-02-21T00:50:31;97393.23;;;2.55;100.00
42003;BME280;27693;50.506;30.832;2023-02-21T00:51:52;97406.89;;;2.56;100.00
42003;BME280;27693;50.506;30.832;2023-02-21T00:53:14;97387.11;;;2.58;100.00
42003;BME280;27693;50.506;30.832;2023-02-21T00:54:36;97379.24;;;2.61;100.00
42003;BME280;27693;50.506;30.832;2023-02-21T00:55:57;97386.27;;;2.58;100.00
42003;BME280;27693;50.506;30.832;2023-02-21T00:57:19;97386.21;;;2.59;100.00
42003;BME280;27693;50.506;30.832;2023-02-21T00:58:40;97375.94;;;2.59;100.00
42003;BME280;27693;50.506;30.832;2023-02-21T01:00:01;97367.16;;;2.63;100.00
42003;BME280;27693;50.506;30.832;2023-02-21T01:01:25;97381.75;;;2.63;100.00
42003;BME280;27693;50.506;30.832;2023-02-21T01:02:46;97385.14;;;2.63;100.00
42003;BME280;27693;50.506;30.832;2023-02-21T01:04:06;97382.34;;;2.68;100.00
42003;BME280;27693;50.506;30.832;2023-02-21T01:05:28;97397.07;;;2.64;100.00
42003;BME280;27693;50.506;30.832;2023-02-21T01:06:50;97366.03;;;2.69;100.00
42003;BME280;27693;50.506;30.832;2023-02-21T01:08:11;97373.88;;;2.66;100.00
42003;BME280;27693;50.506;30.832;2023-02-21T01:09:32;97385.58;;;2.71;100.00
42003;BME280;27693;50.506;30.832;2023-02-21T01:10:52;97383.91;;;2.70;100.00
42003;BME280;27693;50.506;30.832;2023-02-21T01:12:14;97377.12;;;2.69;100.00
42003;BME280;27693;50.506;30.832;2023-02-21T01:13:37;97369.27;;;2.73;100.00
42003;BME280;27693;50.506;30.832;2023-02-21T01:14:58;97369.38;;;2.87;100.00
42003;BME280;27693;50.506;30.832;2023-02-21T01:16:19;97384.94;;;2.84;100.00
42003;BME280;27693;50.506;30.832;2023-02-21T01:17:41;97375.57;;;2.83;100.00
42003;BME280;27693;50.506;30.832;2023-02-21T01:19:02;97369.70;;;2.81;100.00
42003;BME280;27693;50.506;30.832;2023-02-21T01:20:25;97377.23;;;2.84;100.00
42003;BME280;27693;50.506;30.832;2023-02-21T01:21:46;97374.52;;;2.87;100.00
42003;BME280;27693;50.506;30.832;2023-02-21T01:23:08;97389.17;;;2.85;100.00
42003;BME280;27693;50.506;30.832;2023-02-21T01:24:29;97380.70;;;2.83;100.00
42003;BME280;27693;50.506;30.832;2023-02-21T01:25:52;97393.23;;;2.89;100.00
42003;BME280;27693;50.506;30.832;2023-02-21T01:27:13;97382.81;;;2.92;100.00
42003;BME280;27693;50.506;30.832;2023-02-21T01:28:35;97408.31;;;2.95;100.00
42003;BME280;27693;50.506;30.832;2023-02-21T01:29:59;97407.67;;;2.92;100.00
42003;BME280;27693;50.506;30.832;2023-02-21T01:31:22;97420.25;;;2.96;100.00
42003;BME280;27693;50.506;30.832;2023-02-21T01:32:43;97383.39;;;2.97;100.00
42003;BME280;27693;50.506;30.832;2023-02-21T01:34:06;97368.73;;;2.99;100.00
42003;BME280;27693;50.506;30.832;2023-02-21T01:35:28;97404.70;;;2.99;100.00
42003;BME280;27693;50.506;30.832;2023-02-21T01:36:49;97390.77;;;3.03;100.00
42003;BME280;27693;50.506;30.832;2023-02-21T01:38:11;97392.28;;;3.08;100.00
42003;BME280;27693;50.506;30.832;2023-02-21T01:39:34;97405.86;;;3.10;100.00
42003;BME280;27693;50.506;30.832;2023-02-21T01:40:58;97431.81;;;3.05;100.00
42003;BME280;27693;50.506;30.832;2023-02-21T01:42:20;97426.41;;;3.10;100.00
42003;BME280;27693;50.506;30.832;2023-02-21T01:44:04;97402.38;;;3.11;100.00
42003;BME280;27693;50.506;30.832;2023-02-21T01:45:39;97396.66;;;3.06;100.00
42003;BME280;27693;50.506;30.832;2023-02-21T01:46:59;97418.13;;;3.04;100.00
42003;BME280;27693;50.506;30.832;2023-02-21T01:48:23;97401.05;;;3.03;100.00
42003;BME280;27693;50.506;30.832;2023-02-21T01:49:45;97419.94;;;3.02;100.00
42003;BME280;27693;50.506;30.832;2023-02-21T01:51:08;97421.77;;;3.00;100.00
42003;BME280;27693;50.506;30.832;2023-02-21T01:52:30;97411.50;;;3.00;100.00
42003;BME280;27693;50.506;30.832;2023-02-21T01:53:51;97412.55;;;2.96;100.00
42003;BME280;27693;50.506;30.832;2023-02-21T01:55:13;97414.06;;;3.00;100.00
42003;BME280;27693;50.506;30.832;2023-02-21T01:56:35;97418.45;;;2.98;100.00
42003;BME280;27693;50.506;30.832;2023-02-21T01:57:56;97409.83;;;2.99;100.00
42003;BME280;27693;50.506;30.832;2023-02-21T01:59:19;97399.56;;;2.99;100.00
42003;BME280;27693;50.506;30.832;2023-02-21T02:00:42;97409.98;;;2.96;100.00
42003;BME280;27693;50.506;30.832;2023-02-21T02:02:26;97407.27;;;2.99;100.00
42003;BME280;27693;50.506;30.832;2023-02-21T02:03:44;97401.37;;;2.97;100.00
42003;BME280;27693;50.506;30.832;2023-02-21T02:05:09;97394.75;;;2.93;100.00
42003;BME280;27693;50.506;30.832;2023-02-21T02:06:31;97401.37;;;2.97;100.00
42003;BME280;27693;50.506;30.832;2023-02-21T02:07:53;97400.03;;;2.90;100.00
42003;BME280;27693;50.506;30.832;2023-02-21T02:09:20;97422.41;;;2.88;100.00
42003;BME280;27693;50.506;30.832;2023-02-21T02:10:43;97400.20;;;2.87;100.00
42003;BME280;27693;50.506;30.832;2023-02-21T02:12:28;97389.84;;;2.88;100.00
42003;BME280;27693;50.506;30.832;2023-02-21T02:13:48;97384.94;;;2.84;100.00
42003;BME280;27693;50.506;30.832;2023-02-21T02:15:06;97397.02;;;2.82;100.00
42003;BME280;27693;50.506;30.832;2023-02-21T02:16:19;97388.59;;;2.80;100.00
42003;BME280;27693;50.506;30.832;2023-02-21T02:20:30;97393.72;;;2.80;100.00
42003;BME280;27693;50.506;30.832;2023-02-21T02:25:55;97386.92;;;2.79;100.00
42003;BME280;27693;50.506;30.832;2023-02-21T02:27:24;97404.00;;;2.80;100.00
42003;BME280;27693;50.506;30.832;2023-02-21T02:29:04;97381.79;;;2.79;100.00
42003;BME280;27693;50.506;30.832;2023-02-21T02:33:12;97355.12;;;2.81;100.00
42003;BME280;27693;50.506;30.832;2023-02-21T02:35:55;97417.56;;;2.82;100.00
42003;BME280;27693;50.506;30.832;2023-02-21T02:38:22;97402.16;;;2.82;100.00
42003;BME280;27693;50.506;30.832;2023-02-21T02:39:31;97402.77;;;2.87;100.00
42003;BME280;27693;50.506;30.832;2023-02-21T02:44:40;97403.44;;;2.91;100.00
42003;BME280;27693;50.506;30.832;2023-02-21T02:45:49;97424.80;;;2.91;100.00
42003;BME280;27693;50.506;30.832;2023-02-21T02:46:54;97408.31;;;2.95;100.00
42003;BME280;27693;50.506;30.832;2023-02-21T02:48:04;97406.69;;;2.94;100.00
42003;BME280;27693;50.506;30.832;2023-02-21T02:49:21;97439.90;;;2.97;100.00
42003;BME280;27693;50.506;30.832;2023-02-21T02:50:23;97394.24;;;3.02;100.00
42003;BME280;27693;50.506;30.832;2023-02-21T02:51:28;97407.84;;;3.04;100.00
42003;BME280;27693;50.506;30.832;2023-02-21T02:52:34;97422.45;;;3.04;100.00
42003;BME280;27693;50.506;30.832;2023-02-21T02:53:38;97417.45;;;3.01;100.00
42003;BME280;27693;50.506;30.832;2023-02-21T02:54:41;97442.33;;;3.00;100.00
42003;BME280;27693;50.506;30.832;2023-02-21T02:55:52;97433.86;;;2.98;99.70
42003;BME280;27693;50.506;30.832;2023-02-21T02:56:55;97421.02;;;2.98;99.61
42003;BME280;27693;50.506;30.832;2023-02-21T02:58:00;97411.82;;;2.94;99.64
42003;BME280;27693;50.506;30.832;2023-02-21T02:59:09;97447.78;;;2.94;99.62
42003;BME280;27693;50.506;30.832;2023-02-21T03:00:14;97441.88;;;2.92;99.59
42003;BME280;27693;50.506;30.832;2023-02-21T03:03:24;97433.19;;;2.95;99.07
42003;BME280;27693;50.506;30.832;2023-02-21T03:06:09;97423.09;;;2.92;98.62
42003;BME280;27693;50.506;30.832;2023-02-21T03:10:27;97433.64;;;2.85;98.49
42003;BME280;27693;50.506;30.832;2023-02-21T03:11:25;97412.28;;;2.85;98.43
42003;BME280;27693;50.506;30.832;2023-02-21T03:14:16;97405.80;;;2.78;98.86
42003;BME280;27693;50.506;30.832;2023-02-21T03:16:38;97425.44;;;2.79;98.63
42003;BME280;27693;50.506;30.832;2023-02-21T03:18:02;97400.93;;;2.89;98.35
42003;BME280;27693;50.506;30.832;2023-02-21T03:19:11;97427.92;;;2.80;98.55
42003;BME280;27693;50.506;30.832;2023-02-21T03:20:16;97419.55;;;2.77;98.80
42003;BME280;27693;50.506;30.832;2023-02-21T03:21:22;97418.64;;;2.78;98.80
42003;BME280;27693;50.506;30.832;2023-02-21T03:22:27;97424.53;;;2.80;98.82
42003;BME280;27693;50.506;30.832;2023-02-21T03:23:33;97422.88;;;2.79;98.86
42003;BME280;27693;50.506;30.832;2023-02-21T03:24:39;97436.61;;;2.78;98.60
42003;BME280;27693;50.506;30.832;2023-02-21T03:25:45;97414.41;;;2.77;98.73
42003;BME280;27693;50.506;30.832;2023-02-21T03:26:52;97427.25;;;2.77;98.72
42003;BME280;27693;50.506;30.832;2023-02-21T03:27:59;97438.59;;;2.73;98.65
42003;BME280;27693;50.506;30.832;2023-02-21T03:29:06;97423.19;;;2.73;99.03
42003;BME280;27693;50.506;30.832;2023-02-21T03:30:10;97479.50;;;2.76;99.02
42003;BME280;27693;50.506;30.832;2023-02-21T03:31:16;97440.09;;;2.77;98.62
42003;BME280;27693;50.506;30.832;2023-02-21T03:32:42;97429.81;;;2.77;98.69
42003;BME280;27693;50.506;30.832;2023-02-21T03:33:42;97436.53;;;2.79;98.67
42003;BME280;27693;50.506;30.832;2023-02-21T03:34:46;97424.68;;;2.77;98.76
42003;BME280;27693;50.506;30.832;2023-02-21T03:35:49;97428.15;;;2.76;98.84
42003;BME280;27693;50.506;30.832;2023-02-21T03:36:51;97424.68;;;2.77;98.76
42003;BME280;27693;50.506;30.832;2023-02-21T03:37:54;97438.42;;;2.76;98.53
42003;BME280;27693;50.506;30.832;2023-02-21T03:38:58;97425.53;;;2.77;98.13
42003;BME280;27693;50.506;30.832;2023-02-21T03:40:06;97471.49;;;2.82;97.97
42003;BME280;27693;50.506;30.832;2023-02-21T03:41:10;97440.77;;;2.80;97.83
42003;BME280;27693;50.506;30.832;2023-02-21T03:42:14;97461.39;;;2.79;97.52
42003;BME280;27693;50.506;30.832;2023-02-21T03:43:17;97438.28;;;2.79;97.45
42003;BME280;27693;50.506;30.832;2023-02-21T03:44:25;97417.73;;;2.79;97.07
42003;BME280;27693;50.506;30.832;2023-02-21T03:45:27;97436.97;;;2.87;96.34
42003;BME280;27693;50.506;30.832;2023-02-21T03:46:40;97463.50;;;2.88;96.14
42003;BME280;27693;50.506;30.832;2023-02-21T03:47:43;97477.84;;;2.92;94.89
42003;BME280;27693;50.506;30.832;2023-02-21T03:48:46;97444.27;;;2.95;94.20
42003;BME280;27693;50.506;30.832;2023-02-21T03:49:54;97465.14;;;2.89;94.51
42003;BME280;27693;50.506;30.832;2023-02-21T03:50:57;97451.48;;;2.88;94.16
42003;BME280;27693;50.506;30.832;2023-02-21T03:52:01;97434.50;;;2.86;94.70
42003;BME280;27693;50.506;30.832;2023-02-21T03:53:04;97459.41;;;2.84;94.67
42003;BME280;27693;50.506;30.832;2023-02-21T03:54:07;97441.44;;;2.84;94.31
42003;BME280;27693;50.506;30.832;2023-02-21T03:55:11;97433.73;;;2.84;94.67
42003;BME280;27693;50.506;30.832;2023-02-21T03:56:15;97428.69;;;2.82;94.86
42003;BME280;27693;50.506;30.832;2023-02-21T03:57:25;97429.67;;;2.80;94.72
42003;BME280;27693;50.506;30.832;2023-02-21T03:58:28;97447.56;;;2.81;94.79
42003;BME280;27693;50.506;30.832;2023-02-21T03:59:32;97436.47;;;2.81;94.51
42003;BME280;27693;50.506;30.832;2023-02-21T04:00:35;97439.77;;;2.83;94.71
42003;BME280;27693;50.506;30.832;2023-02-21T04:01:38;97428.01;;;2.79;94.68
42003;BME280;27693;50.506;30.832;2023-02-21T04:02:40;97422.88;;;2.79;94.77
42003;BME280;27693;50.506;30.832;2023-02-21T04:03:45;97454.36;;;2.82;94.51
42003;BME280;27693;50.506;30.832;2023-02-21T04:04:49;97438.28;;;2.79;94.47
42003;BME280;27693;50.506;30.832;2023-02-21T04:05:53;97445.89;;;2.80;94.09
42003;BME280;27693;50.506;30.832;2023-02-21T04:06:57;97451.03;;;2.80;94.27
42003;BME280;27693;50.506;30.832;2023-02-21T04:08:01;97423.69;;;2.79;94.68
42003;BME280;27693;50.506;30.832;2023-02-21T04:09:05;97443.56;;;2.76;94.79
42003;BME280;27693;50.506;30.832;2023-02-21T04:10:08;97443.56;;;2.76;94.48
42003;BME280;27693;50.506;30.832;2023-02-21T04:11:17;97446.89;;;2.78;94.39
42003;BME280;27693;50.506;30.832;2023-02-21T04:12:20;97436.61;;;2.78;94.04
42003;BME280;27693;50.506;30.832;2023-02-21T04:13:23;97433.14;;;2.79;94.12
42003;BME280;27693;50.506;30.832;2023-02-21T04:14:27;97433.81;;;2.82;94.07
42003;BME280;27693;50.506;30.832;2023-02-21T04:15:29;97427.02;;;2.81;94.30
42003;BME280;27693;50.506;30.832;2023-02-21T04:16:32;97427.02;;;2.81;94.30
42003;BME280;27693;50.506;30.832;2023-02-21T04:17:35;97439.95;;;2.80;94.31
42003;BME280;27693;50.506;30.832;2023-02-21T04:18:39;97416.83;;;2.80;94.31
42003;BME280;27693;50.506;30.832;2023-02-21T04:19:43;97434.64;;;2.83;94.42
42003;BME280;27693;50.506;30.832;2023-02-21T04:20:46;97412.20;;;2.86;94.02
42003;BME280;27693;50.506;30.832;2023-02-21T04:21:50;97434.50;;;2.86;93.99
42003;BME280;27693;50.506;30.832;2023-02-21T04:22:52;97456.84;;;2.84;93.85
42003;BME280;27693;50.506;30.832;2023-02-21T04:23:57;97442.28;;;2.84;94.16
42003;BME280;27693;50.506;30.832;2023-02-21T04:25:01;97422.02;;;2.78;94.36
42003;BME280;27693;50.506;30.832;2023-02-21T04:26:06;97418.55;;;2.79;94.70
42003;BME280;27693;50.506;30.832;2023-02-21T04:27:14;97440.67;;;2.82;94.52
42003;BME280;27693;50.506;30.832;2023-02-21T04:28:18;97445.89;;;2.80;94.37
42003;BME280;27693;50.506;30.832;2023-02-21T04:29:22;97432.97;;;2.82;94.17
42003;BME280;27693;50.506;30.832;2023-02-21T04:30:25;97423.46;;;2.84;94.14
42003;BME280;27693;50.506;30.832;2023-02-21T04:31:29;97425.13;;;2.85;94.10
42003;BME280;27693;50.506;30.832;2023-02-21T04:32:33;97421.73;;;2.84;94.19
42003;BME280;27693;50.506;30.832;2023-02-21T04:33:37;97437.97;;;2.85;93.59
42003;BME280;27693;50.506;30.832;2023-02-21T04:34:40;97437.97;;;2.85;93.59
42003;BME280;27693;50.506;30.832;2023-02-21T04:35:42;97427.69;;;2.85;93.35
42003;BME280;27693;50.506;30.832;2023-02-21T04:36:47;97427.55;;;2.88;93.07
42003;BME280;27693;50.506;30.832;2023-02-21T04:37:50;97445.75;;;2.83;93.10
42003;BME280;27693;50.506;30.832;2023-02-21T04:38:53;97434.50;;;2.86;93.28
42003;BME280;27693;50.506;30.832;2023-02-21T04:39:56;97427.55;;;2.88;92.91
42003;BME280;27693;50.506;30.832;2023-02-21T04:40:58;97458.20;;;2.91;92.37
42003;BME280;27693;50.506;30.832;2023-02-21T04:42:01;97444.27;;;2.95;91.98
42003;BME280;27693;50.506;30.832;2023-02-21T04:43:04;97447.61;;;2.97;91.13
42003;BME280;27693;50.506;30.832;2023-02-21T04:44:07;97447.61;;;2.97;91.13
42003;BME280;27693;50.506;30.832;2023-02-21T04:45:09;97442.47;;;2.97;91.44
42003;BME280;27693;50.506;30.832;2023-02-21T04:46:13;97472.39;;;2.98;91.33
42003;BME280;27693;50.506;30.832;2023-02-21T04:47:17;97488.70;;;2.97;91.29
42003;BME280;27693;50.506;30.832;2023-02-21T04:48:19;97496.27;;;3.00;91.17
42003;BME280;27693;50.506;30.832;2023-02-21T04:49:22;97458.20;;;2.91;91.80
42003;BME280;27693;50.506;30.832;2023-02-21T04:50:26;97458.20;;;2.91;91.80
42003;BME280;27693;50.506;30.832;2023-02-21T04:51:30;97453.73;;;2.95;91.42
42003;BME280;27693;50.506;30.832;2023-02-21T04:52:32;97432.37;;;2.94;91.60
42003;BME280;27693;50.506;30.832;2023-02-21T04:53:34;97466.80;;;2.90;91.82
42003;BME280;27693;50.506;30.832;2023-02-21T04:54:37;97452.06;;;2.94;91.84
42003;BME280;27693;50.506;30.832;2023-02-21T04:55:39;97434.00;;;2.95;91.76
42003;BME280;27693;50.506;30.832;2023-02-21T04:56:41;97486.36;;;2.93;91.86
42003;BME280;27693;50.506;30.832;2023-02-21T04:57:44;97482.89;;;2.94;91.91
42003;BME280;27693;50.506;30.832;2023-02-21T04:58:47;97473.47;;;2.94;91.72
42003;BME280;27693;50.506;30.832;2023-02-21T04:59:56;97453.73;;;2.95;91.52
42003;BME280;27693;50.506;30.832;2023-02-21T05:00:58;97456.53;;;2.90;91.62
42003;BME280;27693;50.506;30.832;2023-02-21T05:02:01;97463.50;;;2.88;92.05
42003;BME280;27693;50.506;30.832;2023-02-21T05:03:04;97465.00;;;2.92;91.87
42003;BME280;27693;50.506;30.832;2023-02-21T05:04:07;97478.74;;;2.91;92.07
42003;BME280;27693;50.506;30.832;2023-02-21T05:05:09;97495.95;;;2.89;92.20
42003;BME280;27693;50.506;30.832;2023-02-21T05:06:22;97484.05;;;2.88;92.14
42003;BME280;27693;50.506;30.832;2023-02-21T05:07:25;97492.48;;;2.90;92.19
42003;BME280;27693;50.506;30.832;2023-02-21T05:08:28;97480.23;;;2.95;92.25
42003;BME280;27693;50.506;30.832;2023-02-21T05:09:31;97473.61;;;2.91;92.30
42003;BME280;27693;50.506;30.832;2023-02-21T05:10:33;97493.34;;;2.91;92.57
42003;BME280;27693;50.506;30.832;2023-02-21T05:11:38;97493.34;;;2.91;92.57
42003;BME280;27693;50.506;30.832;2023-02-21T05:12:41;97472.84;;;2.89;92.71
42003;BME280;27693;50.506;30.832;2023-02-21T05:13:45;97475.41;;;2.89;92.97
42003;BME280;27693;50.506;30.832;2023-02-21T05:14:48;97461.75;;;2.88;93.13
42003;BME280;27693;50.506;30.832;2023-02-21T05:15:51;97501.09;;;2.89;93.42
42003;BME280;27693;50.506;30.832;2023-02-21T05:16:54;97468.64;;;2.88;93.37
42003;BME280;27693;50.506;30.832;2023-02-21T05:17:56;97485.86;;;2.86;93.41
42003;BME280;27693;50.506;30.832;2023-02-21T05:18:59;97476.58;;;2.83;93.53
42003;BME280;27693;50.506;30.832;2023-02-21T05:20:05;97473.02;;;2.86;93.86
42003;BME280;27693;50.506;30.832;2023-02-21T05:21:09;97466.12;;;2.86;93.99
42003;BME280;27693;50.506;30.832;2023-02-21T05:22:12;97457.52;;;2.87;94.12
42003;BME280;27693;50.506;30.832;2023-02-21T05:23:14;97479.81;;;2.87;94.04
42003;BME280;27693;50.506;30.832;2023-02-21T05:24:17;97487.52;;;2.87;93.92
42003;BME280;27693;50.506;30.832;2023-02-21T05:25:21;97494.91;;;2.93;93.13
42003;BME280;27693;50.506;30.832;2023-02-21T05:26:26;97495.64;;;2.95;92.63
42003;BME280;27693;50.506;30.832;2023-02-21T05:27:31;97475.09;;;2.95;92.29
42003;BME280;27693;50.506;30.832;2023-02-21T05:28:34;97475.95;;;2.96;92.09
42003;BME280;27693;50.506;30.832;2023-02-21T05:29:37;97476.63;;;2.99;91.72
42003;BME280;27693;50.506;30.832;2023-02-21T05:30:40;97475.72;;;3.00;91.57
42003;BME280;27693;50.506;30.832;2023-02-21T05:31:44;97471.48;;;2.99;91.67
42003;BME280;27693;50.506;30.832;2023-02-21T05:32:47;97488.56;;;3.00;91.54
42003;BME280;27693;50.506;30.832;2023-02-21T05:33:49;97461.03;;;3.02;90.85
42003;BME280;27693;50.506;30.832;2023-02-21T05:34:51;97467.02;;;3.03;91.12
42003;BME280;27693;50.506;30.832;2023-02-21T05:35:54;97465.44;;;3.00;90.99
42003;BME280;27693;50.506;30.832;2023-02-21T05:36:58;97480.09;;;2.98;90.77
42003;BME280;27693;50.506;30.832;2023-02-21T05:38:00;97461.20;;;2.99;90.54
42003;BME280;27693;50.506;30.832;2023-02-21T05:39:04;97480.86;;;3.00;90.75
42003;BME280;27693;50.506;30.832;2023-02-21T05:40:09;97468.16;;;2.97;90.57
42003;BME280;27693;50.506;30.832;2023-02-21T05:41:13;97454.94;;;3.05;89.91
42003;BME280;27693;50.506;30.832;2023-02-21T05:42:17;97491.58;;;3.09;89.62
42003;BME280;27693;50.506;30.832;2023-02-21T05:43:20;97500.91;;;3.10;89.36
42003;BME280;27693;50.506;30.832;2023-02-21T05:44:24;97466.47;;;3.14;88.58
42003;BME280;27693;50.506;30.832;2023-02-21T05:45:26;97503.17;;;3.16;88.31
42003;BME280;27693;50.506;30.832;2023-02-21T05:46:31;97455.11;;;3.18;88.23
42003;BME280;27693;50.506;30.832;2023-02-21T05:47:34;97461.24;;;3.15;88.73
42003;BME280;27693;50.506;30.832;2023-02-21T05:48:37;97469.04;;;3.14;88.38
42003;BME280;27693;50.506;30.832;2023-02-21T05:49:41;97464.72;;;3.14;88.28
42003;BME280;27693;50.506;30.832;2023-02-21T05:50:44;97457.01;;;3.14;88.31
42003;BME280;27693;50.506;30.832;2023-02-21T05:51:46;97495.55;;;3.14;88.37
42003;BME280;27693;50.506;30.832;2023-02-21T05:52:48;97479.23;;;3.15;87.96
42003;BME280;27693;50.506;30.832;2023-02-21T05:53:51;97494.56;;;3.17;87.61
42003;BME280;27693;50.506;30.832;2023-02-21T05:54:53;97487.61;;;3.19;87.57
42003;BME280;27693;50.506;30.832;2023-02-21T05:55:56;97480.80;;;3.18;87.75
42003;BME280;27693;50.506;30.832;2023-02-21T05:56:59;97570.73;;;3.18;87.37
42003;BME280;27693;50.506;30.832;2023-02-21T05:58:01;97476.25;;;3.23;86.55
42003;BME280;27693;50.506;30.832;2023-02-21T05:59:04;97483.95;;;3.23;86.29
42003;BME280;27693;50.506;30.832;2023-02-21T06:00:15;97471.05;;;3.25;86.39
42003;BME280;27693;50.506;30.832;2023-02-21T06:01:16;97477.09;;;3.24;86.51
42003;BME280;27693;50.506;30.832;2023-02-21T06:02:19;97482.15;;;3.25;85.67
42003;BME280;27693;50.506;30.832;2023-02-21T06:03:22;97475.02;;;3.30;85.01
42003;BME280;27693;50.506;30.832;2023-02-21T06:04:25;97491.38;;;3.29;85.16
42003;BME280;27693;50.506;30.832;2023-02-21T06:05:28;97475.88;;;3.31;85.11
42003;BME280;27693;50.506;30.832;2023-02-21T06:06:30;97504.87;;;3.33;85.11
42003;BME280;27693;50.506;30.832;2023-02-21T06:07:32;97487.73;;;3.33;85.21
42003;BME280;27693;50.506;30.832;2023-02-21T06:08:42;97478.27;;;3.34;85.37
42003;BME280;27693;50.506;30.832;2023-02-21T06:09:45;97494.44;;;3.36;85.35
42003;BME280;27693;50.506;30.832;2023-02-21T06:10:47;97483.17;;;3.39;85.00
42003;BME280;27693;50.506;30.832;2023-02-21T06:11:50;97486.50;;;3.41;84.93
42003;BME280;27693;50.506;30.832;2023-02-21T06:12:53;97524.30;;;3.39;85.04
42003;BME280;27693;50.506;30.832;2023-02-21T06:13:56;97506.22;;;3.40;84.49
42003;BME280;27693;50.506;30.832;2023-02-21T06:14:59;97496.92;;;3.38;84.61
42003;BME280;27693;50.506;30.832;2023-02-21T06:16:02;97496.02;;;3.39;84.59
42003;BME280;27693;50.506;30.832;2023-02-21T06:17:04;97500.40;;;3.36;84.69
42003;BME280;27693;50.506;30.832;2023-02-21T06:18:07;97500.25;;;3.40;84.63
42003;BME280;27693;50.506;30.832;2023-02-21T06:19:13;97492.55;;;3.40;84.99
42003;BME280;27693;50.506;30.832;2023-02-21T06:20:18;97499.49;;;3.38;85.06
42003;BME280;27693;50.506;30.832;2023-02-21T06:21:22;97498.59;;;3.39;85.01
42003;BME280;27693;50.506;30.832;2023-02-21T06:22:24;97504.64;;;3.38;85.53
42003;BME280;27693;50.506;30.832;2023-02-21T06:23:27;97489.97;;;3.40;85.36
42003;BME280;27693;50.506;30.832;2023-02-21T06:24:33;97501.83;;;3.42;85.32
42003;BME280;27693;50.506;30.832;2023-02-21T06:25:36;97512.02;;;3.44;85.00
42003;BME280;27693;50.506;30.832;2023-02-21T06:26:38;97501.59;;;3.47;85.16
42003;BME280;27693;50.506;30.832;2023-02-21T06:27:42;97519.59;;;3.47;84.89
42003;BME280;27693;50.506;30.832;2023-02-21T06:28:46;97519.50;;;3.48;84.79
42003;BME280;27693;50.506;30.832;2023-02-21T06:29:48;97502.17;;;3.52;84.77
42003;BME280;27693;50.506;30.832;2023-02-21T06:30:51;97504.75;;;3.52;84.98
42003;BME280;27693;50.506;30.832;2023-02-21T06:31:58;97515.79;;;3.54;84.99
42003;BME280;27693;50.506;30.832;2023-02-21T06:33:00;97511.23;;;3.59;84.67
42003;BME280;27693;50.506;30.832;2023-02-21T06:34:05;97519.52;;;3.64;84.50
42003;BME280;27693;50.506;30.832;2023-02-21T06:35:08;97508.17;;;3.68;84.60
42003;BME280;27693;50.506;30.832;2023-02-21T06:36:17;97505.42;;;3.72;84.81
42003;BME280;27693;50.506;30.832;2023-02-21T06:37:19;97511.91;;;3.79;84.68